createdAt,value
2023-05-09T00:00:54.622Z,269.60
2023-05-09T00:01:54.675Z,266.10
2023-05-09T00:02:54.655Z,73.40
2023-05-09T00:03:54.577Z,150.60
2023-05-09T00:04:54.590Z,290.40
2023-05-09T00:05:54.554Z,323.20
2023-05-09T00:06:54.588Z,347.20
2023-05-09T00:07:54.523Z,75.30
2023-05-09T00:08:54.508Z,93.30
2023-05-09T00:09:54.513Z,136.10
2023-05-09T00:10:54.559Z,326.30
2023-05-09T00:11:54.489Z,294.90
2023-05-09T00:12:54.506Z,306.30
2023-05-09T00:13:54.459Z,145.70
2023-05-09T00:14:54.458Z,117.60
2023-05-09T00:15:54.495Z,155.00
2023-05-09T00:16:54.510Z,328.80
2023-05-09T00:17:54.466Z,296.90
2023-05-09T00:18:54.422Z,318.40
2023-05-09T00:19:54.388Z,315.10
2023-05-09T00:20:54.435Z,284.20
2023-05-09T00:21:54.367Z,143.90
2023-05-09T00:22:54.373Z,152.70
2023-05-09T00:23:54.355Z,515.90
2023-05-09T00:24:54.420Z,497.10
2023-05-09T00:25:54.371Z,356.70
2023-05-09T00:26:54.313Z,459.10
2023-05-09T00:27:54.297Z,445.60
2023-05-09T00:28:54.332Z,478.00
2023-05-09T00:29:54.325Z,355.50
2023-05-09T00:30:54.284Z,385.60
2023-05-09T00:31:54.304Z,351.20
2023-05-09T00:32:54.280Z,336.10
2023-05-09T00:33:54.235Z,345.10
2023-05-09T00:34:54.282Z,283.80
2023-05-09T00:35:54.212Z,293.30
2023-05-09T00:36:54.215Z,322.80
2023-05-09T00:37:54.184Z,287.50
2023-05-09T00:38:54.266Z,307.20
2023-05-09T00:39:54.233Z,293.10
2023-05-09T00:40:54.168Z,277.40
2023-05-09T00:41:54.151Z,287.90
2023-05-09T00:42:54.146Z,284.70
2023-05-09T00:43:54.182Z,285.80
2023-05-09T00:44:54.148Z,292.00
2023-05-09T00:45:54.075Z,298.40
2023-05-09T00:46:54.047Z,276.90
2023-05-09T00:47:54.085Z,302.30
2023-05-09T00:48:54.060Z,256.90
2023-05-09T00:49:54.007Z,284.30
2023-05-09T00:50:54.030Z,95.60
2023-05-09T00:51:53.968Z,125.00
2023-05-09T00:52:53.977Z,95.90
2023-05-09T00:53:53.995Z,143.60
2023-05-09T00:54:53.959Z,144.20
2023-05-09T00:55:53.946Z,151.30
2023-05-09T00:56:53.923Z,141.90
2023-05-09T00:57:53.962Z,116.40
2023-05-09T00:58:53.932Z,160.40
2023-05-09T00:59:53.903Z,116.40
2023-05-09T01:00:53.874Z,157.20
2023-05-09T01:01:53.905Z,111.20
2023-05-09T01:02:54.047Z,151.60
2023-05-09T01:03:53.868Z,164.20
2023-05-09T01:04:53.836Z,288.40
2023-05-09T01:05:53.819Z,297.60
2023-05-09T01:06:53.814Z,144.40
2023-05-09T01:07:53.844Z,205.20
2023-05-09T01:08:53.782Z,111.60
2023-05-09T01:09:53.771Z,184.90
2023-05-09T01:10:53.783Z,139.10
2023-05-09T01:11:53.774Z,349.00
2023-05-09T01:12:53.804Z,398.00
2023-05-09T01:13:53.730Z,368.00
2023-05-09T01:14:53.726Z,396.20
2023-05-09T01:15:53.767Z,387.40
2023-05-09T01:16:53.719Z,383.60
2023-05-09T01:17:53.744Z,165.60
2023-05-09T01:18:53.679Z,380.30
2023-05-09T01:19:53.665Z,376.00
2023-05-09T01:20:53.643Z,389.50
2023-05-09T01:21:53.680Z,398.60
2023-05-09T01:22:53.629Z,382.10
2023-05-09T01:23:53.601Z,388.40
2023-05-09T01:24:53.600Z,70.40
2023-05-09T01:25:53.630Z,84.00
2023-05-09T01:26:53.617Z,81.10
2023-05-09T01:27:53.592Z,380.60
2023-05-09T01:28:53.574Z,417.40
2023-05-09T01:29:53.535Z,407.90
2023-05-09T01:30:53.580Z,495.10
2023-05-09T01:31:53.530Z,420.50
2023-05-09T01:32:53.549Z,399.40
2023-05-09T01:33:53.493Z,389.70
2023-05-09T01:34:53.521Z,161.40
2023-05-09T01:35:53.516Z,254.50
2023-05-09T01:36:53.462Z,406.70
2023-05-09T01:37:53.471Z,408.50
2023-05-09T01:38:53.447Z,371.70
2023-05-09T01:39:53.474Z,67.40
2023-05-09T01:40:53.433Z,82.00
2023-05-09T01:41:53.429Z,163.10
2023-05-09T01:42:53.395Z,184.10
2023-05-09T01:43:53.419Z,386.70
2023-05-09T01:44:53.419Z,429.10
2023-05-09T01:45:53.356Z,406.50
2023-05-09T01:46:53.464Z,274.00
2023-05-09T01:47:53.374Z,250.70
2023-05-09T01:48:53.322Z,253.30
2023-05-09T01:49:53.355Z,248.60
2023-05-09T01:50:53.320Z,216.60
2023-05-09T01:51:53.318Z,211.90
2023-05-09T01:52:53.322Z,64.60
2023-05-09T01:53:53.322Z,62.30
2023-05-09T01:54:53.318Z,140.40
2023-05-09T01:55:53.250Z,387.00
2023-05-09T01:56:53.259Z,310.50
2023-05-09T01:57:53.241Z,339.20
2023-05-09T01:58:53.268Z,346.20
2023-05-09T01:59:53.210Z,397.80
2023-05-09T02:00:53.226Z,313.00
2023-05-09T02:01:53.201Z,270.80
2023-05-09T02:02:53.425Z,273.70
2023-05-09T02:03:53.200Z,301.50
2023-05-09T02:04:53.148Z,320.40
2023-05-09T02:05:53.179Z,65.70
2023-05-09T02:06:53.129Z,73.50
2023-05-09T02:07:53.149Z,84.70
2023-05-09T02:08:53.160Z,388.00
2023-05-09T02:09:53.105Z,562.90
2023-05-09T02:10:53.085Z,576.70
2023-05-09T02:11:53.079Z,554.90
2023-05-09T02:12:53.154Z,554.90
2023-05-09T02:13:53.047Z,406.20
2023-05-09T02:14:53.028Z,418.20
2023-05-09T02:15:53.044Z,424.50
2023-05-09T02:16:53.036Z,420.80
2023-05-09T02:17:53.089Z,411.10
2023-05-09T02:18:53.014Z,393.10
2023-05-09T02:19:52.984Z,400.80
2023-05-09T02:20:53.000Z,411.30
2023-05-09T02:21:52.964Z,409.80
2023-05-09T02:22:52.983Z,432.80
2023-05-09T02:23:52.943Z,462.90
2023-05-09T02:24:52.960Z,481.40
2023-05-09T02:25:52.898Z,482.30
2023-05-09T02:26:52.934Z,475.30
2023-05-09T02:27:52.930Z,472.00
2023-05-09T02:28:52.885Z,446.30
2023-05-09T02:29:52.871Z,467.10
2023-05-09T02:30:52.861Z,415.10
2023-05-09T02:31:52.916Z,449.10
2023-05-09T02:32:52.875Z,431.60
2023-05-09T02:33:52.822Z,341.00
2023-05-09T02:34:52.819Z,108.40
2023-05-09T02:35:52.840Z,119.30
2023-05-09T02:36:52.839Z,125.80
2023-05-09T02:37:52.770Z,142.20
2023-05-09T02:38:52.770Z,526.00
2023-05-09T02:39:52.769Z,488.90
2023-05-09T02:40:52.818Z,461.40
2023-05-09T02:41:52.744Z,474.00
2023-05-09T02:42:52.727Z,461.50
2023-05-09T02:43:52.711Z,464.20
2023-05-09T02:44:52.710Z,460.30
2023-05-09T02:45:52.817Z,379.30
2023-05-09T02:46:52.671Z,181.00
2023-05-09T02:47:52.717Z,154.50
2023-05-09T02:48:52.660Z,288.00
2023-05-09T02:49:52.676Z,679.00
2023-05-09T02:50:52.709Z,699.20
2023-05-09T02:51:52.625Z,635.70
2023-05-09T02:52:52.617Z,572.30
2023-05-09T02:53:52.607Z,475.70
2023-05-09T02:54:52.637Z,468.00
2023-05-09T02:55:52.565Z,466.80
2023-05-09T02:56:52.559Z,472.30
2023-05-09T02:58:01.898Z,463.90
2023-05-09T02:58:53.540Z,472.00
2023-05-09T02:59:52.566Z,472.00
2023-05-09T03:00:52.521Z,471.70
2023-05-09T03:01:52.581Z,501.20
2023-05-09T03:02:52.550Z,490.70
2023-05-09T03:03:52.540Z,476.80
2023-05-09T03:04:52.506Z,210.60
2023-05-09T03:05:52.464Z,347.70
2023-05-09T03:06:52.469Z,676.00
2023-05-09T03:07:52.433Z,651.20
2023-05-09T03:08:52.465Z,624.90
2023-05-09T03:09:52.462Z,603.20
2023-05-09T03:10:52.395Z,612.50
2023-05-09T03:11:52.425Z,650.50
2023-05-09T03:12:52.430Z,654.60
2023-05-09T03:13:52.410Z,647.80
2023-05-09T03:14:52.362Z,656.60
2023-05-09T03:15:52.400Z,630.20
2023-05-09T03:16:52.338Z,645.80
2023-05-09T03:17:52.372Z,593.00
2023-05-09T03:18:52.358Z,535.90
2023-05-09T03:19:52.325Z,472.90
2023-05-09T03:20:52.295Z,481.90
2023-05-09T03:21:52.284Z,488.20
2023-05-09T03:22:52.286Z,485.00
2023-05-09T03:23:52.292Z,486.00
2023-05-09T03:24:52.246Z,484.70
2023-05-09T03:25:52.248Z,490.40
2023-05-09T03:26:52.205Z,503.80
2023-05-09T03:27:52.370Z,490.20
2023-05-09T03:28:52.181Z,492.30
2023-05-09T03:29:52.191Z,483.40
2023-05-09T03:30:52.174Z,503.70
2023-05-09T03:31:52.194Z,464.70
2023-05-09T03:32:52.256Z,173.80
2023-05-09T03:33:52.167Z,231.30
2023-05-09T03:34:52.116Z,618.90
2023-05-09T03:35:52.132Z,625.80
2023-05-09T03:36:52.138Z,617.00
2023-05-09T03:37:52.146Z,587.70
2023-05-09T03:38:52.093Z,608.50
2023-05-09T03:39:52.088Z,604.90
2023-05-09T03:40:52.061Z,593.20
2023-05-09T03:41:52.092Z,587.00
2023-05-09T03:42:52.044Z,561.20
2023-05-09T03:43:52.031Z,468.90
2023-05-09T03:44:52.011Z,432.30
2023-05-09T03:45:52.011Z,453.10
2023-05-09T03:46:52.058Z,431.40
2023-05-09T03:47:52.000Z,109.80
2023-05-09T03:48:51.950Z,180.10
2023-05-09T03:49:51.952Z,196.40
2023-05-09T03:50:51.988Z,234.00
2023-05-09T03:51:51.960Z,604.20
2023-05-09T03:52:51.920Z,412.80
2023-05-09T03:53:51.925Z,527.80
2023-05-09T03:54:51.905Z,526.20
2023-05-09T03:55:51.931Z,498.80
2023-05-09T03:56:51.878Z,496.80
2023-05-09T03:57:51.876Z,167.80
2023-05-09T03:58:51.882Z,178.20
2023-05-09T03:59:51.841Z,202.30
2023-05-09T04:00:51.874Z,251.60
2023-05-09T04:01:51.859Z,296.70
2023-05-09T04:02:51.845Z,533.20
2023-05-09T04:03:51.862Z,670.90
2023-05-09T04:04:51.793Z,700.90
2023-05-09T04:05:51.811Z,712.30
2023-05-09T04:06:51.793Z,594.50
2023-05-09T04:07:51.750Z,549.60
2023-05-09T04:08:51.778Z,530.40
2023-05-09T04:09:51.769Z,534.10
2023-05-09T04:10:51.762Z,523.80
2023-05-09T04:11:51.723Z,502.30
2023-05-09T04:12:51.748Z,510.30
2023-05-09T04:13:51.700Z,466.50
2023-05-09T04:14:51.727Z,289.30
2023-05-09T04:15:51.682Z,195.50
2023-05-09T04:16:51.744Z,217.30
2023-05-09T04:17:51.682Z,223.20
2023-05-09T04:18:51.629Z,264.60
2023-05-09T04:19:51.687Z,309.00
2023-05-09T04:20:51.617Z,294.10
2023-05-09T04:21:51.617Z,333.30
2023-05-09T04:22:51.578Z,526.30
2023-05-09T04:23:51.632Z,602.60
2023-05-09T04:24:51.607Z,583.50
2023-05-09T04:25:51.680Z,573.20
2023-05-09T04:26:51.548Z,582.90
2023-05-09T04:27:51.527Z,498.80
2023-05-09T04:28:51.562Z,251.60
2023-05-09T04:29:51.501Z,141.80
2023-05-09T04:30:51.610Z,162.70
2023-05-09T04:31:51.618Z,148.30
2023-05-09T04:32:51.494Z,145.20
2023-05-09T04:33:51.505Z,155.30
2023-05-09T04:34:51.469Z,138.70
2023-05-09T04:35:51.451Z,127.30
2023-05-09T04:36:51.433Z,150.30
2023-05-09T04:37:51.432Z,153.30
2023-05-09T04:38:51.437Z,130.60
2023-05-09T04:39:51.405Z,117.60
2023-05-09T04:40:51.379Z,95.60
2023-05-09T04:41:51.390Z,145.70
2023-05-09T04:42:51.405Z,172.00
2023-05-09T04:43:51.387Z,192.40
2023-05-09T04:44:51.338Z,133.20
2023-05-09T04:45:51.377Z,182.30
2023-05-09T04:46:51.345Z,163.80
2023-05-09T04:47:51.414Z,312.10
2023-05-09T04:48:51.272Z,157.90
2023-05-09T04:49:51.301Z,296.30
2023-05-09T04:50:51.287Z,139.70
2023-05-09T04:51:51.274Z,503.10
2023-05-09T04:52:51.294Z,323.90
2023-05-09T04:53:51.377Z,191.80
2023-05-09T04:54:51.220Z,516.80
2023-05-09T04:55:51.207Z,455.40
2023-05-09T04:56:51.265Z,438.70
2023-05-09T04:57:51.231Z,296.40
2023-05-09T04:58:51.180Z,125.90
2023-05-09T04:59:51.173Z,430.70
2023-05-09T05:00:51.155Z,399.70
2023-05-09T05:01:51.248Z,374.70
2023-05-09T05:02:51.190Z,363.30
2023-05-09T05:03:51.137Z,346.70
2023-05-09T05:04:51.360Z,334.40
2023-05-09T05:05:51.218Z,368.60
2023-05-09T05:06:51.133Z,321.60
2023-05-09T05:07:51.091Z,348.00
2023-05-09T05:08:51.087Z,358.70
2023-05-09T05:09:51.074Z,397.00
2023-05-09T05:10:51.085Z,391.70
2023-05-09T05:12:00.790Z,388.20
2023-05-09T05:12:52.030Z,434.40
2023-05-09T05:13:51.045Z,395.90
2023-05-09T05:14:51.014Z,422.70
2023-05-09T05:15:51.051Z,322.50
2023-05-09T05:16:51.003Z,393.80
2023-05-09T05:17:51.058Z,486.10
2023-05-09T05:18:50.970Z,494.00
2023-05-09T05:19:51.015Z,485.00
2023-05-09T05:20:50.971Z,401.00
2023-05-09T05:21:50.935Z,519.50
2023-05-09T05:22:50.962Z,552.20
2023-05-09T05:23:50.929Z,481.20
2023-05-09T05:24:50.957Z,399.40
2023-05-09T05:25:50.907Z,356.50
2023-05-09T05:26:50.863Z,387.10
2023-05-09T05:27:50.893Z,407.20
2023-05-09T05:28:50.827Z,374.50
2023-05-09T05:29:50.865Z,318.70
2023-05-09T05:30:50.824Z,447.20
2023-05-09T05:31:50.929Z,430.60
2023-05-09T05:32:50.916Z,409.20
2023-05-09T05:33:50.804Z,378.50
2023-05-09T05:34:50.820Z,469.80
2023-05-09T05:35:50.773Z,438.80
2023-05-09T05:36:50.782Z,466.70
2023-05-09T05:37:50.767Z,278.30
2023-05-09T05:38:50.862Z,382.40
2023-05-09T05:39:50.978Z,390.00
2023-05-09T05:40:50.738Z,471.20
2023-05-09T05:41:50.720Z,398.10
2023-05-09T05:42:50.709Z,454.30
2023-05-09T05:43:52.822Z,489.00
2023-05-09T05:44:50.677Z,413.90
2023-05-09T05:45:50.696Z,413.50
2023-05-09T05:46:50.629Z,352.70
2023-05-09T05:47:50.660Z,385.20
2023-05-09T05:48:50.648Z,367.70
2023-05-09T05:49:50.615Z,330.50
2023-05-09T05:50:50.602Z,319.60
2023-05-09T05:51:50.596Z,286.30
2023-05-09T05:52:50.625Z,330.80
2023-05-09T05:53:50.606Z,300.00
2023-05-09T05:54:50.546Z,317.20
2023-05-09T05:55:50.612Z,315.20
2023-05-09T05:56:50.507Z,296.00
2023-05-09T05:57:50.560Z,302.70
2023-05-09T05:58:50.492Z,286.20
2023-05-09T05:59:50.504Z,303.00
2023-05-09T06:00:50.483Z,307.80
2023-05-09T06:01:50.525Z,238.10
2023-05-09T06:02:50.529Z,104.70
2023-05-09T06:03:50.550Z,65.50
2023-05-09T06:04:50.452Z,85.70
2023-05-09T06:05:50.427Z,49.40
2023-05-09T06:06:50.434Z,49.00
2023-05-09T06:07:50.426Z,53.80
2023-05-09T06:08:50.392Z,49.80
2023-05-09T06:09:50.373Z,45.60
2023-05-09T06:10:50.394Z,48.20
2023-05-09T06:11:50.388Z,53.70
2023-05-09T06:12:50.405Z,61.30
2023-05-09T06:13:50.339Z,59.20
2023-05-09T06:14:50.312Z,56.60
2023-05-09T06:15:50.324Z,59.00
2023-05-09T06:16:50.415Z,55.50
2023-05-09T06:17:50.380Z,49.80
2023-05-09T06:18:50.301Z,40.60
2023-05-09T06:19:50.273Z,36.40
2023-05-09T06:20:50.300Z,34.90
2023-05-09T06:21:50.300Z,39.90
2023-05-09T06:22:50.222Z,43.40
2023-05-09T06:24:04.331Z,39.50
2023-05-09T06:24:51.226Z,40.80
2023-05-09T06:25:50.218Z,45.50
2023-05-09T06:26:50.166Z,44.80
2023-05-09T06:27:50.194Z,43.30
2023-05-09T06:28:50.175Z,50.90
2023-05-09T06:29:50.194Z,37.80
2023-05-09T06:30:50.196Z,43.60
2023-05-09T06:31:50.159Z,37.40
2023-05-09T06:32:50.134Z,33.70
2023-05-09T06:33:50.139Z,30.30
2023-05-09T06:34:50.160Z,54.10
2023-05-09T06:35:50.124Z,30.20
2023-05-09T06:36:50.082Z,24.60
2023-05-09T06:37:50.097Z,32.10
2023-05-09T06:38:50.078Z,24.30
2023-05-09T06:39:50.097Z,29.30
2023-05-09T06:40:50.067Z,30.80
2023-05-09T06:41:50.024Z,30.80
2023-05-09T06:42:50.041Z,32.20
2023-05-09T06:43:50.130Z,32.80
2023-05-09T06:44:50.055Z,103.20
2023-05-09T06:45:50.033Z,162.90
2023-05-09T06:46:49.960Z,40.30
2023-05-09T06:47:49.963Z,155.10
2023-05-09T06:48:50.021Z,106.60
2023-05-09T06:49:49.983Z,37.60
2023-05-09T06:50:49.924Z,34.50
2023-05-09T06:51:49.902Z,29.60
2023-05-09T06:52:49.901Z,34.10
2023-05-09T06:53:49.909Z,39.80
2023-05-09T06:54:49.865Z,36.00
2023-05-09T06:55:49.847Z,38.60
2023-05-09T06:56:49.860Z,40.40
2023-05-09T06:57:49.850Z,47.90
2023-05-09T06:58:49.884Z,44.40
2023-05-09T06:59:49.819Z,66.90
2023-05-09T07:00:49.795Z,69.40
2023-05-09T07:01:49.924Z,42.50
2023-05-09T07:02:49.857Z,40.70
2023-05-09T07:03:49.829Z,46.40
2023-05-09T07:04:49.780Z,39.60
2023-05-09T07:05:49.750Z,44.20
2023-05-09T07:06:49.753Z,38.90
2023-05-09T07:07:49.774Z,41.10
2023-05-09T07:08:49.763Z,40.40
2023-05-09T07:09:52.991Z,43.30
2023-05-09T07:10:50.698Z,35.80
2023-05-09T07:11:49.693Z,41.10
2023-05-09T07:12:49.724Z,75.30
2023-05-09T07:13:49.680Z,59.60
2023-05-09T07:14:49.680Z,54.20
2023-05-09T07:15:49.679Z,57.00
2023-05-09T07:16:49.747Z,71.10
2023-05-09T07:17:49.684Z,58.30
2023-05-09T07:18:49.628Z,69.20
2023-05-09T07:19:49.581Z,64.80
2023-05-09T07:20:49.622Z,62.50
2023-05-09T07:21:49.558Z,70.00
2023-05-09T07:22:49.626Z,72.90
2023-05-09T07:23:49.538Z,60.10
2023-05-09T07:24:49.540Z,67.80
2023-05-09T07:25:49.533Z,61.30
2023-05-09T07:26:49.508Z,50.70
2023-05-09T07:27:49.528Z,57.80
2023-05-09T07:28:49.496Z,64.00
2023-05-09T07:29:49.474Z,80.00
2023-05-09T07:30:49.479Z,77.60
2023-05-09T07:31:49.534Z,79.80
2023-05-09T07:32:49.580Z,95.80
2023-05-09T07:33:49.442Z,101.50
2023-05-09T07:34:49.425Z,76.10
2023-05-09T07:35:49.418Z,43.20
2023-05-09T07:36:49.565Z,39.70
2023-05-09T07:37:49.424Z,31.20
2023-05-09T07:38:49.425Z,29.80
2023-05-09T07:39:49.348Z,34.60
2023-05-09T07:40:49.384Z,31.10
2023-05-09T07:41:49.400Z,35.30
2023-05-09T07:42:49.326Z,40.60
2023-05-09T07:43:49.313Z,39.70
2023-05-09T07:44:49.324Z,29.00
2023-05-09T07:45:49.357Z,38.20
2023-05-09T07:46:49.356Z,30.30
2023-05-09T07:47:49.291Z,29.90
2023-05-09T07:48:49.303Z,31.60
2023-05-09T07:49:49.235Z,71.00
2023-05-09T07:50:49.285Z,48.30
2023-05-09T07:51:49.262Z,28.80
2023-05-09T07:52:49.216Z,36.60
2023-05-09T07:53:49.198Z,51.00
2023-05-09T07:54:49.217Z,113.10
2023-05-09T07:55:49.244Z,93.00
2023-05-09T07:56:49.183Z,83.30
2023-05-09T07:57:49.163Z,86.70
2023-05-09T07:58:49.168Z,109.60
2023-05-09T07:59:49.173Z,82.60
2023-05-09T08:00:49.169Z,180.60
2023-05-09T08:01:49.103Z,177.40
2023-05-09T08:02:49.191Z,212.50
2023-05-09T08:03:49.118Z,114.40
2023-05-09T08:04:49.283Z,205.80
2023-05-09T08:05:49.114Z,111.50
2023-05-09T08:06:49.076Z,155.70
2023-05-09T08:07:49.048Z,110.70
2023-05-09T08:08:49.047Z,71.70
2023-05-09T08:09:49.093Z,96.80
2023-05-09T08:10:49.030Z,101.50
2023-05-09T08:11:49.003Z,69.90
2023-05-09T08:12:49.110Z,122.30
2023-05-09T08:13:48.991Z,73.20
2023-05-09T08:14:49.018Z,87.30
2023-05-09T08:15:49.006Z,113.70
2023-05-09T08:16:48.958Z,138.40
2023-05-09T08:17:49.014Z,139.10
2023-05-09T08:18:48.960Z,145.20
2023-05-09T08:19:48.966Z,151.60
2023-05-09T08:20:48.906Z,130.10
2023-05-09T08:21:48.884Z,154.40
2023-05-09T08:22:48.868Z,178.60
2023-05-09T08:23:48.950Z,134.10
2023-05-09T08:24:48.899Z,131.50
2023-05-09T08:25:48.853Z,114.80
2023-05-09T08:26:48.859Z,110.30
2023-05-09T08:27:49.768Z,110.10
2023-05-09T08:28:48.879Z,91.80
2023-05-09T08:29:48.842Z,102.40
2023-05-09T08:30:48.788Z,99.40
2023-05-09T08:31:48.927Z,103.80
2023-05-09T08:32:48.814Z,97.10
2023-05-09T08:33:48.818Z,101.20
2023-05-09T08:34:48.785Z,109.90
2023-05-09T08:35:48.737Z,108.10
2023-05-09T08:36:48.734Z,122.30
2023-05-09T08:37:48.750Z,102.70
2023-05-09T08:38:48.742Z,103.40
2023-05-09T08:39:48.687Z,126.40
2023-05-09T08:40:48.661Z,125.70
2023-05-09T08:41:48.663Z,130.30
2023-05-09T08:42:48.702Z,150.40
2023-05-09T08:43:48.648Z,87.20
2023-05-09T08:44:48.641Z,100.10
2023-05-09T08:45:48.636Z,124.90
2023-05-09T08:46:48.731Z,108.00
2023-05-09T08:47:48.635Z,96.40
2023-05-09T08:48:48.577Z,113.90
2023-05-09T08:49:48.562Z,118.80
2023-05-09T08:50:48.580Z,100.10
2023-05-09T08:51:48.614Z,114.30
2023-05-09T08:52:48.570Z,135.80
2023-05-09T08:53:48.549Z,157.90
2023-05-09T08:54:48.547Z,113.60
2023-05-09T08:55:48.540Z,111.80
2023-05-09T08:56:48.557Z,119.90
2023-05-09T08:57:48.484Z,124.90
2023-05-09T08:58:48.475Z,128.60
2023-05-09T08:59:48.458Z,124.80
2023-05-09T09:00:48.520Z,121.70
2023-05-09T09:01:48.598Z,134.60
2023-05-09T09:02:48.468Z,167.10
2023-05-09T09:03:48.417Z,94.30
2023-05-09T09:04:48.508Z,83.90
2023-05-09T09:05:48.545Z,104.90
2023-05-09T09:06:48.468Z,132.20
2023-05-09T09:07:48.387Z,113.60
2023-05-09T09:08:48.382Z,69.30
2023-05-09T09:09:48.401Z,121.20
2023-05-09T09:10:48.468Z,69.00
2023-05-09T09:11:48.364Z,65.00
2023-05-09T09:12:50.073Z,79.80
2023-05-09T09:13:48.315Z,78.80
2023-05-09T09:14:48.333Z,73.30
2023-05-09T09:15:48.353Z,92.50
2023-05-09T09:16:48.389Z,67.60
2023-05-09T09:17:48.285Z,75.00
2023-05-09T09:18:48.260Z,59.00
2023-05-09T09:19:48.270Z,95.70
2023-05-09T09:20:48.289Z,78.80
2023-05-09T09:21:48.270Z,67.00
2023-05-09T09:22:48.234Z,82.40
2023-05-09T09:23:48.261Z,116.60
2023-05-09T09:24:48.254Z,90.30
2023-05-09T09:25:48.299Z,84.70
2023-05-09T09:26:48.229Z,83.70
2023-05-09T09:27:48.173Z,94.10
2023-05-09T09:28:48.181Z,100.10
2023-05-09T09:29:48.193Z,85.90
2023-05-09T09:30:48.152Z,75.90
2023-05-09T09:31:48.250Z,59.80
2023-05-09T09:32:48.161Z,52.60
2023-05-09T09:33:48.133Z,46.50
2023-05-09T09:34:48.136Z,49.00
2023-05-09T09:35:48.093Z,55.20
2023-05-09T09:36:48.096Z,43.30
2023-05-09T09:37:48.052Z,47.00
2023-05-09T09:38:48.111Z,50.20
2023-05-09T09:39:48.048Z,55.80
2023-05-09T09:40:48.057Z,33.20
2023-05-09T09:41:47.999Z,38.00
2023-05-09T09:42:48.037Z,48.50
2023-05-09T09:43:48.065Z,107.90
2023-05-09T09:44:48.028Z,45.80
2023-05-09T09:45:48.018Z,76.40
2023-05-09T09:46:47.988Z,44.50
2023-05-09T09:47:48.058Z,43.90
2023-05-09T09:48:48.029Z,33.70
2023-05-09T09:49:47.969Z,34.50
2023-05-09T09:50:47.938Z,33.30
2023-05-09T09:51:47.902Z,34.20
2023-05-09T09:52:47.951Z,36.40
2023-05-09T09:53:47.875Z,35.40
2023-05-09T09:54:47.895Z,32.30
2023-05-09T09:55:47.883Z,28.30
2023-05-09T09:56:47.886Z,26.10
2023-05-09T09:57:47.887Z,27.80
2023-05-09T09:58:47.841Z,28.70
2023-05-09T09:59:47.848Z,25.90
2023-05-09T10:00:47.810Z,26.80
2023-05-09T10:01:47.900Z,28.80
2023-05-09T10:02:47.874Z,27.30
2023-05-09T10:03:47.795Z,27.20
2023-05-09T10:04:47.754Z,26.00
2023-05-09T10:05:47.749Z,25.90
2023-05-09T10:06:47.786Z,26.70
2023-05-09T10:07:47.753Z,31.00
2023-05-09T10:08:47.793Z,27.10
2023-05-09T10:09:47.716Z,28.30
2023-05-09T10:10:47.736Z,28.70
2023-05-09T10:11:47.737Z,28.70
2023-05-09T10:12:47.723Z,30.70
2023-05-09T10:13:47.660Z,34.10
2023-05-09T10:14:47.630Z,31.30
2023-05-09T10:15:53.613Z,28.70
2023-05-09T10:16:48.765Z,27.70
2023-05-09T10:17:47.801Z,28.20
2023-05-09T10:18:47.862Z,30.20
2023-05-09T10:19:47.601Z,32.70
2023-05-09T10:20:47.630Z,31.20
2023-05-09T10:21:47.604Z,31.80
2023-05-09T10:22:47.579Z,33.00
2023-05-09T10:23:47.554Z,31.60
2023-05-09T10:24:47.592Z,36.40
2023-05-09T10:25:47.548Z,37.90
2023-05-09T10:26:47.525Z,35.70
2023-05-09T10:27:47.534Z,39.40
2023-05-09T10:28:47.496Z,37.60
2023-05-09T10:29:47.518Z,34.40
2023-05-09T10:30:47.534Z,32.50
2023-05-09T10:31:47.602Z,32.80
2023-05-09T10:32:47.496Z,31.40
2023-05-09T10:33:47.513Z,33.10
2023-05-09T10:34:47.506Z,31.40
2023-05-09T10:35:47.447Z,35.80
2023-05-09T10:36:47.428Z,37.30
2023-05-09T10:37:47.428Z,36.50
2023-05-09T10:38:47.424Z,39.80
2023-05-09T10:39:47.405Z,49.90
2023-05-09T10:40:47.386Z,49.80
2023-05-09T10:41:47.364Z,46.40
2023-05-09T10:42:47.345Z,47.00
2023-05-09T10:43:47.393Z,43.70
2023-05-09T10:44:47.345Z,44.70
2023-05-09T10:45:47.293Z,49.90
2023-05-09T10:46:47.426Z,56.40
2023-05-09T10:47:47.316Z,54.50
2023-05-09T10:48:47.325Z,45.60
2023-05-09T10:49:47.331Z,47.20
2023-05-09T10:50:47.282Z,41.90
2023-05-09T10:51:47.243Z,37.30
2023-05-09T10:52:47.255Z,39.10
2023-05-09T10:53:47.319Z,37.40
2023-05-09T10:54:47.226Z,46.90
2023-05-09T10:55:47.215Z,48.10
2023-05-09T10:56:47.211Z,48.20
2023-05-09T10:57:47.215Z,38.80
2023-05-09T10:58:47.243Z,42.20
2023-05-09T10:59:47.200Z,49.30
2023-05-09T11:00:47.145Z,46.60
2023-05-09T11:01:47.183Z,46.30
2023-05-09T11:02:47.267Z,50.30
2023-05-09T11:03:47.313Z,42.60
2023-05-09T11:04:47.128Z,37.40
2023-05-09T11:05:47.109Z,43.00
2023-05-09T11:06:47.102Z,48.60
2023-05-09T11:07:47.160Z,43.00
2023-05-09T11:08:47.060Z,39.00
2023-05-09T11:09:47.056Z,42.00
2023-05-09T11:10:47.089Z,41.20
2023-05-09T11:11:47.039Z,43.70
2023-05-09T11:12:47.052Z,41.10
2023-05-09T11:13:47.057Z,43.40
2023-05-09T11:14:47.002Z,41.70
2023-05-09T11:15:46.999Z,38.20
2023-05-09T11:16:47.036Z,40.10
2023-05-09T11:17:47.122Z,41.70
2023-05-09T11:18:46.959Z,46.30
2023-05-09T11:19:46.970Z,38.40
2023-05-09T11:20:46.961Z,38.30
2023-05-09T11:21:46.921Z,42.70
2023-05-09T11:22:46.943Z,41.00
2023-05-09T11:23:47.005Z,36.50
2023-05-09T11:24:46.910Z,36.50
2023-05-09T11:25:46.870Z,37.40
2023-05-09T11:26:46.964Z,41.30
2023-05-09T11:27:46.872Z,38.90
2023-05-09T11:28:46.851Z,36.70
2023-05-09T11:29:46.909Z,34.10
2023-05-09T11:30:46.823Z,34.10
2023-05-09T11:31:46.880Z,34.10
2023-05-09T11:32:46.844Z,37.30
2023-05-09T11:33:46.763Z,33.40
2023-05-09T11:34:46.805Z,34.90
2023-05-09T11:35:46.777Z,36.80
2023-05-09T11:36:46.772Z,33.80
2023-05-09T11:37:46.768Z,37.50
2023-05-09T11:38:46.762Z,39.30
2023-05-09T11:39:46.763Z,36.50
2023-05-09T11:40:46.759Z,33.30
2023-05-09T11:41:46.743Z,34.60
2023-05-09T11:42:46.673Z,41.20
2023-05-09T11:43:46.687Z,37.40
2023-05-09T11:44:46.723Z,38.30
2023-05-09T11:45:46.747Z,36.10
2023-05-09T11:46:46.684Z,37.40
2023-05-09T11:47:46.685Z,36.40
2023-05-09T11:48:46.630Z,34.70
2023-05-09T11:49:46.630Z,33.60
2023-05-09T11:50:46.648Z,33.70
2023-05-09T11:51:46.608Z,32.50
2023-05-09T11:52:46.596Z,33.10
2023-05-09T11:53:46.589Z,36.10
2023-05-09T11:54:46.611Z,33.90
2023-05-09T11:55:46.642Z,57.70
2023-05-09T11:56:46.586Z,40.50
2023-05-09T11:57:46.560Z,43.30
2023-05-09T11:58:46.505Z,37.70
2023-05-09T11:59:46.646Z,36.80
2023-05-09T12:00:46.527Z,38.10
2023-05-09T12:01:46.499Z,34.80
2023-05-09T12:02:46.555Z,36.00
2023-05-09T12:03:46.595Z,32.10
2023-05-09T12:04:46.515Z,34.70
2023-05-09T12:05:46.464Z,34.30
2023-05-09T12:06:46.430Z,32.40
2023-05-09T12:07:46.494Z,31.40
2023-05-09T12:08:46.495Z,33.80
2023-05-09T12:09:46.440Z,35.20
2023-05-09T12:10:46.398Z,42.70
2023-05-09T12:11:47.815Z,47.20
2023-05-09T12:12:46.405Z,42.10
2023-05-09T12:13:46.414Z,40.00
2023-05-09T12:14:46.364Z,42.10
2023-05-09T12:15:47.185Z,45.00
2023-05-09T12:16:46.347Z,35.90
2023-05-09T12:17:47.373Z,38.00
2023-05-09T12:18:46.365Z,35.30
2023-05-09T12:19:46.306Z,34.90
2023-05-09T12:20:46.300Z,35.80
2023-05-09T12:21:46.284Z,32.80
2023-05-09T12:22:46.294Z,33.30
2023-05-09T12:23:47.487Z,33.30
2023-05-09T12:24:46.278Z,33.70
2023-05-09T12:25:46.223Z,34.50
2023-05-09T12:26:46.227Z,40.40
2023-05-09T12:27:46.246Z,38.00
2023-05-09T12:28:46.258Z,36.20
2023-05-09T12:29:46.237Z,34.00
2023-05-09T12:30:46.171Z,33.50
2023-05-09T12:31:46.216Z,33.00
2023-05-09T12:32:46.285Z,34.50
2023-05-09T12:33:46.223Z,38.60
2023-05-09T12:34:46.148Z,35.60
2023-05-09T12:35:46.152Z,34.40
2023-05-09T12:36:46.119Z,31.60
2023-05-09T12:37:46.148Z,32.50
2023-05-09T12:38:46.088Z,30.70
2023-05-09T12:39:46.065Z,31.80